createdAt,value
2023-02-14T00:04:50.901Z,15.00
2023-02-14T00:09:53.159Z,14.07
2023-02-14T00:15:14.206Z,13.93
2023-02-14T00:20:16.620Z,12.60
2023-02-14T00:25:19.225Z,14.07
2023-02-14T00:30:21.688Z,12.60
2023-02-14T00:35:23.962Z,17.13
2023-02-14T00:40:26.199Z,11.60
2023-02-14T00:45:28.467Z,12.70
2023-02-14T00:50:30.733Z,14.13
2023-02-14T00:55:33.009Z,13.67
2023-02-14T01:00:35.284Z,13.13
2023-02-14T01:05:37.739Z,13.37
2023-02-14T01:10:40.677Z,11.73
2023-02-14T01:15:46.126Z,16.17
2023-02-14T01:20:48.409Z,11.70
2023-02-14T01:25:50.677Z,13.03
2023-02-14T01:30:52.934Z,21.77
2023-02-14T01:35:55.672Z,13.87
2023-02-14T01:40:58.387Z,11.10
2023-02-14T01:46:00.843Z,17.90
2023-02-14T01:51:03.275Z,13.57
2023-02-14T01:56:10.224Z,19.40
2023-02-14T02:01:17.887Z,24.37
2023-02-14T02:06:30.748Z,11.70
2023-02-14T02:11:33.589Z,11.93
2023-02-14T02:17:00.112Z,18.93
2023-02-14T02:22:23.665Z,17.77
2023-02-14T02:27:38.848Z,13.27
2023-02-14T02:33:25.056Z,13.70
2023-02-14T02:39:02.293Z,12.00
2023-02-14T02:44:07.364Z,14.60
2023-02-14T02:49:43.926Z,17.23
2023-02-14T02:54:53.793Z,14.93
2023-02-14T02:59:57.937Z,11.40
2023-02-14T03:05:05.538Z,13.67
2023-02-14T03:10:15.537Z,14.07
2023-02-14T03:15:19.132Z,12.80
2023-02-14T03:20:29.288Z,13.07
2023-02-14T03:25:41.652Z,15.67
2023-02-14T03:31:13.168Z,10.80
2023-02-14T03:36:23.001Z,14.60
2023-02-14T03:41:29.858Z,13.93
2023-02-14T03:46:45.106Z,13.13
2023-02-14T03:51:50.670Z,13.40
2023-02-14T03:57:08.300Z,12.20
2023-02-14T04:02:32.233Z,11.80
2023-02-14T04:07:47.929Z,18.53
2023-02-14T04:12:50.532Z,10.43
2023-02-14T04:18:11.658Z,13.27
2023-02-14T04:23:13.898Z,16.67
2023-02-14T04:28:16.296Z,15.53
2023-02-14T04:33:18.555Z,12.27
2023-02-14T04:38:20.845Z,16.03
2023-02-14T04:43:23.111Z,11.63
2023-02-14T04:48:25.471Z,12.00
2023-02-14T04:53:27.820Z,10.50
2023-02-14T04:58:30.064Z,18.67
2023-02-14T05:03:32.329Z,16.40
2023-02-14T05:08:34.619Z,14.43
2023-02-14T05:13:37.944Z,13.63
2023-02-14T05:18:40.468Z,12.10
2023-02-14T05:23:42.758Z,11.67
2023-02-14T05:28:45.322Z,14.80
2023-02-14T05:33:47.605Z,15.50
2023-02-14T05:38:49.902Z,12.13
2023-02-14T05:43:52.160Z,12.03
2023-02-14T05:48:54.420Z,11.60
2023-02-14T05:53:59.936Z,14.30
2023-02-14T05:59:02.239Z,10.70
2023-02-14T06:04:04.582Z,13.70
2023-02-14T06:09:06.954Z,13.07
2023-02-14T06:14:09.226Z,15.63
2023-02-14T06:19:11.506Z,11.17
2023-02-14T06:24:14.272Z,12.20
2023-02-14T06:29:17.490Z,11.83
2023-02-14T06:34:19.858Z,16.00
2023-02-14T06:39:22.160Z,15.97
2023-02-14T06:44:24.480Z,13.07
2023-02-14T06:49:26.752Z,17.97
2023-02-14T06:54:28.996Z,20.57
2023-02-14T06:59:31.264Z,14.30
2023-02-14T07:04:33.591Z,13.43
2023-02-14T07:09:36.133Z,8.90
2023-02-14T07:14:38.474Z,10.53
2023-02-14T07:19:41.132Z,14.33
2023-02-14T07:24:43.389Z,11.40
2023-02-14T07:29:49.026Z,10.50
2023-02-14T07:34:51.957Z,15.53
2023-02-14T07:39:54.268Z,13.50
2023-02-14T07:44:56.613Z,12.20
2023-02-14T07:49:58.922Z,13.77
2023-02-14T07:55:01.262Z,20.73
2023-02-14T08:00:12.643Z,11.30
2023-02-14T08:05:15.560Z,13.67
2023-02-14T08:10:18.343Z,13.67
2023-02-14T08:15:41.627Z,12.00
2023-02-14T08:20:45.378Z,14.60
2023-02-14T08:25:52.378Z,10.37
2023-02-14T08:30:55.301Z,14.23
2023-02-14T08:35:57.686Z,7.83
2023-02-14T08:41:03.765Z,11.07
2023-02-14T08:46:06.948Z,8.77
2023-02-14T08:51:12.367Z,6.03
2023-02-14T08:56:15.367Z,10.13
2023-02-14T09:01:18.351Z,10.23
2023-02-14T09:06:20.901Z,9.80
2023-02-14T09:11:24.793Z,11.40
2023-02-14T09:16:27.238Z,6.20
2023-02-14T09:21:30.193Z,7.10
2023-02-14T09:26:32.799Z,8.87
2023-02-14T09:31:35.403Z,5.87
2023-02-14T09:36:56.771Z,5.97
2023-02-14T09:42:19.571Z,6.70
2023-02-14T09:47:40.903Z,8.57
2023-02-14T09:52:43.241Z,5.40
2023-02-14T09:58:03.467Z,8.00
2023-02-14T10:03:27.494Z,5.93
2023-02-14T10:08:58.047Z,5.10
2023-02-14T10:14:08.715Z,4.57
2023-02-14T10:19:16.697Z,5.53
2023-02-14T10:24:28.717Z,4.00
2023-02-14T10:29:31.057Z,6.47
2023-02-14T10:34:56.511Z,4.73
2023-02-14T10:40:23.365Z,6.10
2023-02-14T10:46:07.429Z,5.83
2023-02-14T10:51:36.803Z,12.00
2023-02-14T10:56:45.646Z,7.37
2023-02-14T11:01:51.666Z,5.73
2023-02-14T11:06:54.023Z,6.97
2023-02-14T11:12:00.289Z,9.20
2023-02-14T11:17:46.766Z,2.93
2023-02-14T11:22:52.515Z,4.87
2023-02-14T11:33:40.361Z,4.90
2023-02-14T11:38:46.069Z,6.73
2023-02-14T11:43:49.358Z,8.23
2023-02-14T11:48:59.144Z,5.63
2023-02-14T11:54:05.028Z,9.47
2023-02-14T11:59:07.536Z,10.57
2023-02-14T12:04:21.239Z,6.30
2023-02-14T12:20:58.438Z,5.97
2023-02-14T12:26:35.044Z,5.47
2023-02-14T12:31:37.437Z,5.17
2023-02-14T12:37:31.141Z,3.60
2023-02-14T12:44:14.377Z,8.90
2023-02-14T12:56:36.488Z,6.83
2023-02-14T13:08:25.050Z,7.70
2023-02-14T13:26:06.404Z,8.87
2023-02-14T13:36:41.174Z,15.30
2023-02-14T13:41:43.824Z,6.80
2023-02-14T13:46:51.969Z,14.03
2023-02-14T13:52:06.504Z,7.17
2023-02-14T13:57:59.520Z,7.67
2023-02-14T14:03:02.542Z,4.50
2023-02-14T14:08:23.479Z,6.33
2023-02-14T14:13:41.029Z,25.30
2023-02-14T14:18:43.718Z,8.97
2023-02-14T14:24:02.013Z,6.63
2023-02-14T14:29:24.625Z,12.57
2023-02-14T14:34:28.468Z,24.20
2023-02-14T14:39:33.679Z,9.17
2023-02-14T14:44:43.928Z,14.87
2023-02-14T14:49:48.745Z,9.03
2023-02-14T14:54:51.318Z,10.33
2023-02-14T15:00:20.037Z,12.73
2023-02-14T15:05:37.762Z,16.37
2023-02-14T15:10:42.713Z,22.90
2023-02-14T15:15:50.897Z,10.43
2023-02-14T15:20:53.851Z,25.40
2023-02-14T15:25:56.307Z,21.43
2023-02-14T15:31:02.350Z,26.40
2023-02-14T15:36:08.779Z,56.47
2023-02-14T15:41:13.865Z,97.03
2023-02-14T15:46:29.583Z,136.90
2023-02-14T15:51:35.808Z,106.17
2023-02-14T15:56:49.060Z,48.63
2023-02-14T16:01:55.760Z,24.30
2023-02-14T16:07:25.347Z,14.60
2023-02-14T16:12:36.984Z,15.10
2023-02-14T16:17:44.172Z,16.37
2023-02-14T16:22:46.844Z,18.00
2023-02-14T16:27:49.325Z,17.20
2023-02-14T16:32:53.784Z,18.73
2023-02-14T16:37:56.292Z,24.33
2023-02-14T16:42:59.273Z,15.93
2023-02-14T16:48:01.897Z,20.73
2023-02-14T16:53:06.538Z,26.92
2023-02-14T16:58:09.174Z,24.23
2023-02-14T17:03:11.644Z,54.23
2023-02-14T17:08:16.004Z,53.50
2023-02-14T17:13:22.182Z,91.70
2023-02-14T17:18:25.388Z,73.43
2023-02-14T17:23:27.724Z,32.53
2023-02-14T17:28:30.034Z,209.77
2023-02-14T17:33:33.462Z,124.60
2023-02-14T17:38:36.022Z,117.07
2023-02-14T17:43:38.273Z,210.77
2023-02-14T17:48:41.670Z,124.03
2023-02-14T17:53:44.292Z,109.40
2023-02-14T17:58:48.510Z,98.07
2023-02-14T18:03:54.290Z,96.77
2023-02-14T18:08:59.610Z,103.73
2023-02-14T18:14:03.703Z,102.07
2023-02-14T18:19:06.969Z,127.53
2023-02-14T18:24:10.051Z,127.93
2023-02-14T18:29:12.747Z,250.30
2023-02-14T18:34:15.075Z,319.07
2023-02-14T18:39:17.380Z,188.33
2023-02-14T18:44:20.795Z,215.90
2023-02-14T18:49:23.490Z,132.80
2023-02-14T18:54:25.907Z,116.50
2023-02-14T18:59:28.149Z,86.03
2023-02-14T19:04:30.390Z,80.57
2023-02-14T19:09:38.933Z,111.27
2023-02-14T19:14:41.374Z,227.17
2023-02-14T19:19:43.628Z,189.77
2023-02-14T19:24:45.946Z,111.90
2023-02-14T19:29:48.331Z,112.03
2023-02-14T19:34:50.601Z,140.23
2023-02-14T19:39:53.001Z,104.10
2023-02-14T19:44:55.267Z,99.10
2023-02-14T19:49:59.547Z,122.07
2023-02-14T19:55:03.327Z,91.67
2023-02-14T20:00:08.635Z,94.07
2023-02-14T20:05:23.536Z,92.70
2023-02-14T20:10:25.824Z,159.30
2023-02-14T20:15:29.119Z,205.33
2023-02-14T20:20:54.334Z,116.17
2023-02-14T20:25:57.109Z,164.27
2023-02-14T20:30:59.605Z,108.07
2023-02-14T20:36:02.483Z,135.63
2023-02-14T20:41:10.466Z,94.57
2023-02-14T20:46:13.017Z,147.27
2023-02-14T20:51:17.934Z,97.53
2023-02-14T20:56:22.718Z,97.47
2023-02-14T21:01:25.194Z,116.67
2023-02-14T21:06:31.049Z,116.60
2023-02-14T21:11:33.355Z,125.63
2023-02-14T21:16:35.632Z,115.80
2023-02-14T21:21:39.586Z,127.07
2023-02-14T21:26:42.700Z,142.93
2023-02-14T21:31:45.146Z,184.13
2023-02-14T21:36:47.559Z,198.07
2023-02-14T21:41:49.821Z,201.33
2023-02-14T21:46:52.081Z,138.40
2023-02-14T21:51:54.871Z,139.73
2023-02-14T21:56:57.176Z,160.07
2023-02-14T22:01:59.429Z,154.67
2023-02-14T22:07:01.819Z,145.70
2023-02-14T22:12:04.233Z,174.70
2023-02-14T22:17:06.485Z,199.20
2023-02-14T22:22:08.717Z,190.50
2023-02-14T22:27:11.028Z,199.23
2023-02-14T22:32:13.336Z,221.17
2023-02-14T22:37:15.700Z,210.57
2023-02-14T22:42:18.032Z,253.00
2023-02-14T22:47:20.362Z,319.30
2023-02-14T22:52:22.698Z,349.07
2023-02-14T22:57:25.730Z,333.77
2023-02-14T23:02:28.031Z,294.37
2023-02-14T23:07:30.317Z,324.87
2023-02-14T23:12:50.981Z,302.27
2023-02-14T23:18:12.220Z,334.33
2023-02-14T23:23:16.872Z,312.60
2023-02-14T23:28:19.112Z,273.97
2023-02-14T23:33:21.374Z,271.67
2023-02-14T23:38:23.615Z,364.80
2023-02-14T23:43:25.889Z,302.70
2023-02-14T23:48:28.833Z,284.93
2023-02-14T23:53:31.091Z,270.93
2023-02-14T23:58:33.344Z,263.43
